Time,TemperatureF,DewpointF,PressureIn,WindDirection,WindDirectionDegrees,WindSpeedMPH,WindSpeedGustMPH,Humidity,HourlyPrecipIn,Conditions,Clouds,dailyrainin,SoftwareType,DateUTC
2013-06-17 00:03:00,69.4,68.2,29.89,West,273,0.0,0.0,96,0.00,,---,0.00,VWS V14.00,2013-06-17 05:03:00,
2013-06-17 00:08:00,69.6,68.4,29.89,West,273,0.0,0.0,96,0.00,,---,0.00,VWS V14.00,2013-06-17 05:08:00,
2013-06-17 00:13:00,69.9,68.7,29.89,West,273,0.0,0.0,96,0.00,,---,0.00,VWS V14.00,2013-06-17 05:13:00,
2013-06-17 00:19:00,69.9,68.7,29.89,West,273,0.0,0.0,96,0.00,,---,0.00,VWS V14.00,2013-06-17 05:19:00,
2013-06-17 00:24:00,69.8,68.6,29.89,West,273,0.0,0.0,96,0.00,,---,0.00,VWS V14.00,2013-06-17 05:24:00,
2013-06-17 00:29:00,69.6,68.4,29.89,West,273,0.0,0.0,96,0.00,,---,0.00,VWS V14.00,2013-06-17 05:29:00,
2013-06-17 00:34:00,69.4,68.2,29.90,West,273,0.0,0.0,96,0.00,,---,0.00,VWS V14.00,2013-06-17 05:34:00,
2013-06-17 00:39:00,69.4,68.2,29.90,West,273,0.0,0.0,96,0.00,,---,0.00,VWS V14.00,2013-06-17 05:39:00,
2013-06-17 00:44:00,69.4,68.2,29.90,West,273,0.0,0.0,96,0.00,,---,0.00,VWS V14.00,2013-06-17 05:44:00,
2013-06-17 00:49:00,69.4,68.2,29.90,West,273,0.0,0.0,96,0.00,,---,0.00,VWS V14.00,2013-06-17 05:49:00,
2013-06-17 00:54:00,69.1,67.9,29.90,West,273,0.0,0.0,96,0.00,,---,0.00,VWS V14.00,2013-06-17 05:54:00,
2013-06-17 00:59:00,68.9,67.7,29.90,West,273,0.0,0.0,96,0.00,,---,0.00,VWS V14.00,2013-06-17 05:59:00,
2013-06-17 01:04:00,68.9,67.7,29.91,West,273,0.0,0.0,96,0.00,,---,0.00,VWS V14.00,2013-06-17 06:04:00,
2013-06-17 01:09:00,68.6,67.4,29.91,West,273,0.0,0.0,96,0.00,,---,0.00,VWS V14.00,2013-06-17 06:09:00,
2013-06-17 01:14:00,68.4,67.5,29.91,West,273,0.0,0.0,97,0.00,,---,0.00,VWS V14.00,2013-06-17 06:14:00,
2013-06-17 01:19:00,68.3,67.4,29.90,West,273,0.0,0.0,97,0.00,,---,0.00,VWS V14.00,2013-06-17 06:19:00,
2013-06-17 01:24:00,68.3,67.4,29.90,West,273,0.0,0.0,97,0.00,,---,0.00,VWS V14.00,2013-06-17 06:24:00,
2013-06-17 01:29:00,68.3,67.4,29.90,West,273,0.0,0.0,97,0.00,,---,0.00,VWS V14.00,2013-06-17 06:29:00,
2013-06-17 01:34:00,68.1,67.2,29.89,West,273,0.0,0.0,97,0.00,,---,0.00,VWS V14.00,2013-06-17 06:34:00,
2013-06-17 01:39:00,68.1,67.2,29.89,West,273,0.0,0.0,97,0.00,,---,0.00,VWS V14.00,2013-06-17 06:39:00,
2013-06-17 01:44:00,68.3,67.4,29.89,West,273,0.0,0.0,97,0.00,,---,0.00,VWS V14.00,2013-06-17 06:44:00,
2013-06-17 01:49:00,68.1,67.2,29.88,West,273,0.0,0.0,97,0.00,,---,0.00,VWS V14.00,2013-06-17 06:49:00,
2013-06-17 01:55:00,68.1,67.2,29.88,West,273,0.0,0.0,97,0.00,,---,0.00,VWS V14.00,2013-06-17 06:55:00,
2013-06-17 02:00:00,68.3,67.7,29.88,West,273,0.0,0.0,98,0.00,,---,0.00,VWS V14.00,2013-06-17 07:00:00,
2013-06-17 02:05:00,68.8,68.2,29.87,West,273,0.0,0.0,98,0.00,,---,0.00,VWS V14.00,2013-06-17 07:05:00,
2013-06-17 02:10:00,68.9,68.3,29.87,West,273,0.0,0.0,98,0.00,,---,0.00,VWS V14.00,2013-06-17 07:10:00,
2013-06-17 02:15:00,68.8,68.2,29.87,West,273,0.0,0.0,98,0.00,,---,0.00,VWS V14.00,2013-06-17 07:15:00,
2013-06-17 02:20:00,68.6,68.0,29.87,West,273,0.0,0.0,98,0.00,,---,0.00,VWS V14.00,2013-06-17 07:20:00,
2013-06-17 02:25:00,68.3,67.7,29.87,West,273,0.0,0.0,98,0.00,,---,0.00,VWS V14.00,2013-06-17 07:25:00,
2013-06-17 02:30:00,67.1,66.2,29.87,West,273,0.0,0.0,97,0.00,,---,0.00,VWS V14.00,2013-06-17 07:30:00,
2013-06-17 02:35:00,66.8,66.2,29.88,West,273,0.0,0.0,98,0.00,,---,0.00,VWS V14.00,2013-06-17 07:35:00,
2013-06-17 02:40:00,66.8,66.2,29.88,West,273,0.0,0.0,98,0.00,,---,0.00,VWS V14.00,2013-06-17 07:40:00,
2013-06-17 02:45:00,66.9,66.6,29.88,West,273,0.0,0.0,99,0.00,,---,0.00,VWS V14.00,2013-06-17 07:45:00,
2013-06-17 02:50:00,67.3,67.0,29.88,West,273,0.0,0.0,99,0.00,,---,0.00,VWS V14.00,2013-06-17 07:50:00,
2013-06-17 02:56:00,67.6,67.3,29.88,West,273,0.0,0.0,99,0.00,,---,0.00,VWS V14.00,2013-06-17 07:56:00,
2013-06-17 03:01:00,67.6,67.0,29.88,West,273,0.0,0.0,98,0.00,,---,0.00,VWS V14.00,2013-06-17 08:01:00,
2013-06-17 03:06:00,67.4,67.1,29.88,West,273,0.0,0.0,99,0.00,,---,0.00,VWS V14.00,2013-06-17 08:06:00,
2013-06-17 03:11:00,67.6,67.3,29.88,West,273,0.0,0.0,99,0.00,,---,0.00,VWS V14.00,2013-06-17 08:11:00,
2013-06-17 03:16:00,67.4,67.1,29.88,West,273,0.0,0.0,99,0.00,,---,0.00,VWS V14.00,2013-06-17 08:16:00,
2013-06-17 03:21:00,67.8,67.5,29.88,West,273,0.0,0.0,99,0.00,,---,0.00,VWS V14.00,2013-06-17 08:21:00,
2013-06-17 03:26:00,67.9,67.6,29.88,West,273,0.0,0.0,99,0.00,,---,0.00,VWS V14.00,2013-06-17 08:26:00,
2013-06-17 03:31:00,67.8,67.5,29.88,West,273,0.0,0.0,99,0.00,,---,0.00,VWS V14.00,2013-06-17 08:31:00,
2013-06-17 03:36:00,67.8,67.5,29.88,West,273,0.0,0.0,99,0.00,,---,0.00,VWS V14.00,2013-06-17 08:36:00,
2013-06-17 03:42:00,67.9,67.6,29.88,West,273,0.0,0.0,99,0.00,,---,0.00,VWS V14.00,2013-06-17 08:42:00,
2013-06-17 03:47:00,68.1,67.8,29.88,West,273,0.0,0.0,99,0.00,,---,0.00,VWS V14.00,2013-06-17 08:47:00,
2013-06-17 03:52:00,68.3,68.0,29.88,West,273,0.0,0.0,99,0.00,,---,0.00,VWS V14.00,2013-06-17 08:52:00,
2013-06-17 03:57:00,68.4,68.1,29.88,West,273,0.0,0.0,99,0.00,,---,0.00,VWS V14.00,2013-06-17 08:57:00,
2013-06-17 04:02:00,68.4,68.1,29.88,West,273,0.0,0.0,99,0.00,,---,0.00,VWS V14.00,2013-06-17 09:02:00,
2013-06-17 04:07:00,67.8,67.5,29.89,West,273,0.0,0.0,99,0.00,,---,0.00,VWS V14.00,2013-06-17 09:07:00,
2013-06-17 04:12:00,66.8,66.5,29.89,West,273,0.0,0.0,99,0.00,,---,0.00,VWS V14.00,2013-06-17 09:12:00,
2013-06-17 04:17:00,66.0,65.4,29.89,West,273,0.0,0.0,98,0.00,,---,0.00,VWS V14.00,2013-06-17 09:17:00,
2013-06-17 04:23:00,65.2,64.6,29.88,West,273,0.0,0.0,98,0.00,,---,0.00,VWS V14.00,2013-06-17 09:23:00,
2013-06-17 04:28:00,65.0,64.7,29.88,West,273,0.0,0.0,99,0.00,,---,0.00,VWS V14.00,2013-06-17 09:28:00,
2013-06-17 04:33:00,65.2,64.9,29.88,West,273,0.0,0.0,99,0.00,,---,0.00,VWS V14.00,2013-06-17 09:33:00,
2013-06-17 04:38:00,65.2,64.9,29.88,West,273,0.0,0.0,99,0.00,,---,0.00,VWS V14.00,2013-06-17 09:38:00,
2013-06-17 04:43:00,65.5,65.2,29.88,West,273,0.0,0.0,99,0.00,,---,0.00,VWS V14.00,2013-06-17 09:43:00,
2013-06-17 04:48:00,65.5,65.2,29.88,West,273,0.0,0.0,99,0.00,,---,0.00,VWS V14.00,2013-06-17 09:48:00,
2013-06-17 04:53:00,65.5,65.2,29.87,West,273,0.0,0.0,99,0.00,,---,0.00,VWS V14.00,2013-06-17 09:53:00,
2013-06-17 04:58:00,65.6,65.3,29.87,West,273,0.0,0.0,99,0.00,,---,0.00,VWS V14.00,2013-06-17 09:58:00,
2013-06-17 05:03:00,65.6,65.3,29.87,West,273,0.0,0.0,99,0.00,,---,0.00,VWS V14.00,2013-06-17 10:03:00,
2013-06-17 05:09:00,65.8,65.5,29.86,West,273,0.0,0.0,99,0.00,,---,0.00,VWS V14.00,2013-06-17 10:09:00,
2013-06-17 05:14:00,66.0,65.7,29.86,West,273,0.0,0.0,99,0.00,,---,0.00,VWS V14.00,2013-06-17 10:14:00,
2013-06-17 05:19:00,65.8,65.5,29.86,West,273,0.0,0.0,99,0.00,,---,0.00,VWS V14.00,2013-06-17 10:19:00,
2013-06-17 05:24:00,65.0,64.7,29.86,West,273,0.0,0.0,99,0.00,,---,0.00,VWS V14.00,2013-06-17 10:24:00,
2013-06-17 05:29:00,64.8,64.5,29.86,West,273,0.0,0.0,99,0.00,,---,0.00,VWS V14.00,2013-06-17 10:29:00,
2013-06-17 05:34:00,65.2,64.9,29.87,West,273,0.0,0.0,99,0.00,,---,0.00,VWS V14.00,2013-06-17 10:34:00,
2013-06-17 05:39:00,65.0,64.7,29.87,West,273,0.0,0.0,99,0.00,,---,0.00,VWS V14.00,2013-06-17 10:39:00,
2013-06-17 05:44:00,65.0,64.7,29.87,West,273,0.0,0.0,99,0.00,,---,0.00,VWS V14.00,2013-06-17 10:44:00,
2013-06-17 05:50:00,65.2,65.2,29.88,West,273,0.0,0.0,100,0.00,,---,0.00,VWS V14.00,2013-06-17 10:50:00,
2013-06-17 05:55:00,65.5,65.2,29.88,West,273,0.0,0.0,99,0.00,,---,0.00,VWS V14.00,2013-06-17 10:55:00,
2013-06-17 06:00:00,65.5,65.2,29.88,West,273,0.0,0.0,99,0.00,,---,0.00,VWS V14.00,2013-06-17 11:00:00,
2013-06-17 06:05:00,65.3,65.0,29.89,West,273,0.0,0.0,99,0.00,,---,0.00,VWS V14.00,2013-06-17 11:05:00,
2013-06-17 06:10:00,65.3,65.0,29.89,West,273,0.0,0.0,99,0.00,,---,0.00,VWS V14.00,2013-06-17 11:10:00,
2013-06-17 06:15:00,65.3,65.3,29.89,West,273,0.0,0.0,100,0.00,,---,0.00,VWS V14.00,2013-06-17 11:15:00,
2013-06-17 06:20:00,65.3,65.0,29.89,West,273,0.0,0.0,99,0.00,,---,0.00,VWS V14.00,2013-06-17 11:20:00,
2013-06-17 06:25:00,65.3,65.3,29.89,West,273,0.0,0.0,100,0.00,,---,0.00,VWS V14.00,2013-06-17 11:25:00,
2013-06-17 06:30:00,65.5,65.5,29.89,West,273,0.0,0.0,100,0.00,,---,0.00,VWS V14.00,2013-06-17 11:30:00,
2013-06-17 06:36:00,65.6,65.6,29.89,West,273,0.0,0.0,100,0.00,,---,0.00,VWS V14.00,2013-06-17 11:36:00,
2013-06-17 06:41:00,66.1,66.1,29.89,West,273,0.0,0.0,100,0.00,,---,0.00,VWS V14.00,2013-06-17 11:41:00,
2013-06-17 06:46:00,66.4,66.4,29.89,West,273,0.0,0.0,100,0.00,,---,0.00,VWS V14.00,2013-06-17 11:46:00,
2013-06-17 06:51:00,67.1,67.1,29.89,West,273,0.0,0.0,100,0.00,,---,0.00,VWS V14.00,2013-06-17 11:51:00,
2013-06-17 06:56:00,67.6,67.6,29.89,West,273,0.0,0.0,100,0.00,,---,0.00,VWS V14.00,2013-06-17 11:56:00,
2013-06-17 07:01:00,68.1,68.1,29.89,West,273,0.0,0.0,100,0.00,,---,0.00,VWS V14.00,2013-06-17 12:01:00,
2013-06-17 07:06:00,68.3,68.3,29.89,West,273,0.0,0.0,100,0.00,,---,0.00,VWS V14.00,2013-06-17 12:06:00,
2013-06-17 07:11:00,68.6,68.6,29.89,West,273,0.0,0.0,100,0.00,,---,0.00,VWS V14.00,2013-06-17 12:11:00,
2013-06-17 07:17:00,68.9,68.9,29.89,West,273,0.0,0.0,100,0.00,,---,0.00,VWS V14.00,2013-06-17 12:17:00,
2013-06-17 07:22:00,69.1,69.1,29.89,West,273,0.0,0.0,100,0.00,,---,0.00,VWS V14.00,2013-06-17 12:22:00,
2013-06-17 07:27:00,69.3,69.3,29.89,West,273,0.0,0.0,100,0.00,,---,0.00,VWS V14.00,2013-06-17 12:27:00,
2013-06-17 07:32:00,69.4,69.4,29.89,West,273,0.0,0.0,100,0.00,,---,0.00,VWS V14.00,2013-06-17 12:32:00,
2013-06-17 07:37:00,69.6,69.6,29.89,West,273,0.0,0.0,100,0.00,,---,0.00,VWS V14.00,2013-06-17 12:37:00,
2013-06-17 07:42:00,69.9,69.9,29.89,West,273,0.0,0.0,100,0.00,,---,0.00,VWS V14.00,2013-06-17 12:42:00,
2013-06-17 07:47:00,70.3,70.3,29.89,West,273,0.0,0.0,100,0.00,,---,0.00,VWS V14.00,2013-06-17 12:47:00,
2013-06-17 07:52:00,70.6,70.6,29.89,West,273,0.0,0.0,100,0.00,,---,0.00,VWS V14.00,2013-06-17 12:52:00,
2013-06-17 07:57:00,70.9,70.9,29.89,West,273,0.0,0.0,100,0.00,,---,0.00,VWS V14.00,2013-06-17 12:57:00,
2013-06-17 08:02:00,70.9,70.6,29.89,West,273,0.0,0.0,99,0.00,,---,0.00,VWS V14.00,2013-06-17 13:02:00,
2013-06-17 08:07:00,71.1,70.8,29.89,West,273,0.0,0.0,99,0.00,,---,0.00,VWS V14.00,2013-06-17 13:07:00,
2013-06-17 08:13:00,71.3,71.0,29.89,West,273,0.0,0.0,99,0.00,,---,0.00,VWS V14.00,2013-06-17 13:13:00,
2013-06-17 08:18:00,71.5,71.2,29.89,West,273,2.0,2.0,99,0.00,,---,0.00,VWS V14.00,2013-06-17 13:18:00,
2013-06-17 08:23:00,71.6,71.3,29.90,West,273,1.0,1.0,99,0.00,,---,0.00,VWS V14.00,2013-06-17 13:23:00,
2013-06-17 08:28:00,71.6,70.7,29.90,West,273,0.0,0.0,97,0.00,,---,0.00,VWS V14.00,2013-06-17 13:28:00,
2013-06-17 08:33:00,72.3,71.1,29.90,West,273,0.0,0.0,96,0.00,,---,0.00,VWS V14.00,2013-06-17 13:33:00,
2013-06-17 08:38:00,72.8,71.6,29.90,West,273,0.0,0.0,96,0.00,,---,0.00,VWS V14.00,2013-06-17 13:38:00,
2013-06-17 08:43:00,73.5,72.0,29.90,West,273,0.0,0.0,95,0.00,,---,0.00,VWS V14.00,2013-06-17 13:43:00,
2013-06-17 08:48:00,73.7,71.2,29.90,West,273,2.0,4.0,92,0.00,,---,0.00,VWS V14.00,2013-06-17 13:48:00,
2013-06-17 08:54:00,74.2,70.8,29.90,West,273,2.0,2.0,89,0.00,,---,0.00,VWS V14.00,2013-06-17 13:54:00,
2013-06-17 08:59:00,74.6,70.1,29.90,West,273,2.0,3.0,86,0.00,,---,0.00,VWS V14.00,2013-06-17 13:59:00,
2013-06-17 09:04:00,75.1,69.9,29.89,West,273,2.0,2.0,84,0.00,,---,0.00,VWS V14.00,2013-06-17 14:04:00,
2013-06-17 09:09:00,75.4,69.2,29.89,West,273,0.0,4.0,81,0.00,,---,0.00,VWS V14.00,2013-06-17 14:09:00,
2013-06-17 09:14:00,75.8,68.5,29.89,West,273,0.0,0.0,78,0.00,,---,0.00,VWS V14.00,2013-06-17 14:14:00,
2013-06-17 09:19:00,76.3,68.9,29.89,West,273,0.0,0.0,78,0.00,,---,0.00,VWS V14.00,2013-06-17 14:19:00,
2013-06-17 09:24:00,76.7,69.3,29.89,West,273,0.0,0.0,78,0.00,,---,0.00,VWS V14.00,2013-06-17 14:24:00,
2013-06-17 09:29:00,76.8,69.4,29.89,West,273,0.0,0.0,78,0.00,,---,0.00,VWS V14.00,2013-06-17 14:29:00,
2013-06-17 09:34:00,77.0,68.9,29.89,West,273,0.0,0.0,76,0.00,,---,0.00,VWS V14.00,2013-06-17 14:34:00,
2013-06-17 09:39:00,77.0,68.5,29.89,West,273,2.0,3.0,75,0.00,,---,0.00,VWS V14.00,2013-06-17 14:39:00,
2013-06-17 09:44:00,77.4,68.1,29.89,West,273,0.0,3.0,73,0.00,,---,0.00,VWS V14.00,2013-06-17 14:44:00,
2013-06-17 09:49:00,77.9,68.2,29.89,West,273,0.0,0.0,72,0.00,,---,0.00,VWS V14.00,2013-06-17 14:49:00,
2013-06-17 09:54:00,78.1,67.9,29.89,West,273,0.0,1.0,71,0.00,,---,0.00,VWS V14.00,2013-06-17 14:54:00,
2013-06-17 09:59:00,78.5,67.9,29.89,West,273,4.0,4.0,70,0.00,,---,0.00,VWS V14.00,2013-06-17 14:59:00,
2013-06-17 10:05:00,78.6,68.4,29.89,West,273,0.0,0.0,71,0.00,,---,0.00,VWS V14.00,2013-06-17 15:05:00,
2013-06-17 10:10:00,78.5,66.6,29.89,West,273,2.0,3.0,67,0.00,,---,0.00,VWS V14.00,2013-06-17 15:10:00,
2013-06-17 10:15:00,78.8,66.9,29.89,West,273,0.0,0.0,67,0.00,,---,0.00,VWS V14.00,2013-06-17 15:15:00,
2013-06-17 10:20:00,79.6,68.5,29.89,West,273,5.0,5.0,69,0.00,,---,0.00,VWS V14.00,2013-06-17 15:20:00,
2013-06-17 10:25:00,79.6,66.4,29.89,West,273,0.0,0.0,64,0.00,,---,0.00,VWS V14.00,2013-06-17 15:25:00,
2013-06-17 10:30:00,80.1,67.3,29.89,West,273,0.0,3.0,65,0.00,,---,0.00,VWS V14.00,2013-06-17 15:30:00,
2013-06-17 10:35:00,80.5,67.7,29.89,West,273,0.0,1.0,65,0.00,,---,0.00,VWS V14.00,2013-06-17 15:35:00,
2013-06-17 10:40:00,80.7,66.5,29.89,West,273,1.0,1.0,62,0.00,,---,0.00,VWS V14.00,2013-06-17 15:40:00,
2013-06-17 10:45:00,81.1,66.4,29.89,West,273,2.0,2.0,61,0.00,,---,0.00,VWS V14.00,2013-06-17 15:45:00,
2013-06-17 10:50:00,81.6,65.9,29.89,West,273,4.0,6.0,59,0.00,,---,0.00,VWS V14.00,2013-06-17 15:50:00,
2013-06-17 10:55:00,81.4,63.7,29.89,West,273,0.0,0.0,55,0.00,,---,0.00,VWS V14.00,2013-06-17 15:55:00,
2013-06-17 11:01:00,81.8,65.1,29.89,West,270,3.0,3.0,57,0.00,,---,0.00,VWS V14.00,2013-06-17 16:01:00,
2013-06-17 11:06:00,81.4,62.6,29.88,West,270,0.0,0.0,53,0.00,,---,0.00,VWS V14.00,2013-06-17 16:06:00,
2013-06-17 11:11:00,81.8,65.6,29.88,West,270,0.0,0.0,58,0.00,,---,0.00,VWS V14.00,2013-06-17 16:11:00,
2013-06-17 11:16:00,81.8,63.5,29.88,West,265,2.0,4.0,54,0.00,,---,0.00,VWS V14.00,2013-06-17 16:16:00,
2013-06-17 11:21:00,81.6,60.0,29.89,West,265,0.0,1.0,48,0.00,,---,0.00,VWS V14.00,2013-06-17 16:21:00,
2013-06-17 11:26:00,82.0,61.0,29.89,West,265,0.0,1.0,49,0.00,,---,0.00,VWS V14.00,2013-06-17 16:26:00,
2013-06-17 11:31:00,82.6,62.1,29.89,West,265,3.0,4.0,50,0.00,,---,0.00,VWS V14.00,2013-06-17 16:31:00,
2013-06-17 11:36:00,83.0,64.7,29.88,West,265,1.0,2.0,54,0.00,,---,0.00,VWS V14.00,2013-06-17 16:36:00,
2013-06-17 11:41:00,82.8,62.8,29.88,West,265,0.0,2.0,51,0.00,,---,0.00,VWS V14.00,2013-06-17 16:41:00,
2013-06-17 11:47:00,82.8,63.4,29.88,West,265,0.0,6.0,52,0.00,,---,0.00,VWS V14.00,2013-06-17 16:47:00,
2013-06-17 11:52:00,82.8,63.4,29.89,West,265,0.0,0.0,52,0.00,,---,0.00,VWS V14.00,2013-06-17 16:52:00,
2013-06-17 11:57:00,82.8,63.9,29.89,West,264,0.0,0.0,53,0.00,,---,0.00,VWS V14.00,2013-06-17 16:57:00,
2013-06-17 12:02:00,83.2,65.9,29.89,West,264,3.0,4.0,56,0.00,,---,0.00,VWS V14.00,2013-06-17 17:02:00,
2013-06-17 12:07:00,83.4,64.5,29.89,West,264,0.0,1.0,53,0.00,,---,0.00,VWS V14.00,2013-06-17 17:07:00,
2013-06-17 12:12:00,83.4,66.1,29.89,West,264,0.0,0.0,56,0.00,,---,0.00,VWS V14.00,2013-06-17 17:12:00,
2013-06-17 12:17:00,83.4,65.0,29.89,West,264,0.0,0.0,54,0.00,,---,0.00,VWS V14.00,2013-06-17 17:17:00,
2013-06-17 12:22:00,83.4,64.5,29.88,West,264,0.0,1.0,53,0.00,,---,0.00,VWS V14.00,2013-06-17 17:22:00,
2013-06-17 12:28:00,83.4,64.5,29.88,West,264,0.0,0.0,53,0.00,,---,0.00,VWS V14.00,2013-06-17 17:28:00,
2013-06-17 12:33:00,83.4,64.5,29.88,West,264,0.0,0.0,53,0.00,,---,0.00,VWS V14.00,2013-06-17 17:33:00,
2013-06-17 12:38:00,83.4,64.5,29.89,West,264,1.0,4.0,53,0.00,,---,0.00,VWS V14.00,2013-06-17 17:38:00,
2013-06-17 12:43:00,83.4,62.8,29.89,West,264,0.0,0.0,50,0.00,,---,0.00,VWS V14.00,2013-06-17 17:43:00,
2013-06-17 12:48:00,83.6,63.6,29.89,West,264,2.0,2.0,51,0.00,,---,0.00,VWS V14.00,2013-06-17 17:48:00,
2013-06-17 12:53:00,83.4,60.5,29.89,West,264,0.0,4.0,46,0.00,,---,0.00,VWS V14.00,2013-06-17 17:53:00,
2013-06-17 12:58:00,83.4,61.1,29.89,West,264,1.0,1.0,47,0.00,,---,0.00,VWS V14.00,2013-06-17 17:58:00,
2013-06-17 13:03:00,83.4,61.7,29.89,West,264,0.0,2.0,48,0.00,,---,0.00,VWS V14.00,2013-06-17 18:03:00,
2013-06-17 13:08:00,83.4,62.8,29.89,West,264,1.0,4.0,50,0.00,,---,0.00,VWS V14.00,2013-06-17 18:08:00,
2013-06-17 13:13:00,83.6,63.6,29.89,West,264,0.0,0.0,51,0.00,,---,0.00,VWS V14.00,2013-06-17 18:13:00,
2013-06-17 13:18:00,83.6,60.7,29.89,West,264,0.0,0.0,46,0.00,,---,0.00,VWS V14.00,2013-06-17 18:18:00,
2013-06-17 13:23:00,83.8,61.4,29.89,West,264,0.0,0.0,47,0.00,,---,0.00,VWS V14.00,2013-06-17 18:23:00,
2013-06-17 13:29:00,83.8,61.4,29.89,West,264,0.0,0.0,47,0.00,,---,0.00,VWS V14.00,2013-06-17 18:29:00,
2013-06-17 13:34:00,84.0,61.0,29.88,West,264,0.0,0.0,46,0.00,,---,0.00,VWS V14.00,2013-06-17 18:34:00,
2013-06-17 13:39:00,84.0,60.4,29.88,West,264,0.0,1.0,45,0.00,,---,0.00,VWS V14.00,2013-06-17 18:39:00,
2013-06-17 13:44:00,84.0,61.0,29.88,West,264,0.0,3.0,46,0.00,,---,0.00,VWS V14.00,2013-06-17 18:44:00,
2013-06-17 13:49:00,84.1,61.1,29.88,West,264,3.0,3.0,46,0.00,,---,0.00,VWS V14.00,2013-06-17 18:49:00,
2013-06-17 13:54:00,84.1,61.7,29.88,West,265,3.0,5.0,47,0.00,,---,0.00,VWS V14.00,2013-06-17 18:54:00,
2013-06-17 13:59:00,83.8,59.6,29.88,West,265,0.0,0.0,44,0.00,,---,0.00,VWS V14.00,2013-06-17 18:59:00,
2013-06-17 14:04:00,84.0,60.4,29.87,West,265,0.0,1.0,45,0.00,,---,0.00,VWS V14.00,2013-06-17 19:04:00,
2013-06-17 14:09:00,84.3,63.1,29.87,West,265,0.0,0.0,49,0.00,,---,0.00,VWS V14.00,2013-06-17 19:09:00,
2013-06-17 14:14:00,84.7,61.7,29.87,West,265,0.0,0.0,46,0.00,,---,0.00,VWS V14.00,2013-06-17 19:14:00,
2013-06-17 14:19:00,84.9,61.2,29.87,West,265,0.0,0.0,45,0.00,,---,0.00,VWS V14.00,2013-06-17 19:19:00,
2013-06-17 14:24:00,84.9,59.3,29.87,West,267,2.0,7.0,42,0.00,,---,0.00,VWS V14.00,2013-06-17 19:24:00,
2013-06-17 14:29:00,84.5,60.8,29.87,West,267,0.0,0.0,45,0.00,,---,0.00,VWS V14.00,2013-06-17 19:29:00,
2013-06-17 14:34:00,84.7,61.0,29.86,West,267,0.0,0.0,45,0.00,,---,0.00,VWS V14.00,2013-06-17 19:34:00,
2013-06-17 14:40:00,84.7,59.8,29.86,West,267,0.0,0.0,43,0.00,,---,0.00,VWS V14.00,2013-06-17 19:40:00,
2013-06-17 14:45:00,84.9,59.3,29.86,West,267,0.0,0.0,42,0.00,,---,0.00,VWS V14.00,2013-06-17 19:45:00,
2013-06-17 14:50:00,85.1,58.8,29.85,West,267,0.0,0.0,41,0.00,,---,0.00,VWS V14.00,2013-06-17 19:50:00,
2013-06-17 14:55:00,85.3,60.3,29.85,West,267,2.0,2.0,43,0.00,,---,0.00,VWS V14.00,2013-06-17 19:55:00,
2013-06-17 15:00:00,85.1,60.8,29.85,West,267,0.0,2.0,44,0.00,,---,0.00,VWS V14.00,2013-06-17 20:00:00,
2013-06-17 15:05:00,84.9,60.6,29.85,West,267,0.0,0.0,44,0.00,,---,0.00,VWS V14.00,2013-06-17 20:05:00,
2013-06-17 15:10:00,84.7,59.1,29.85,West,267,0.0,0.0,42,0.00,,---,0.00,VWS V14.00,2013-06-17 20:10:00,
2013-06-17 15:15:00,84.9,59.3,29.85,West,267,0.0,0.0,42,0.00,,---,0.00,VWS V14.00,2013-06-17 20:15:00,
2013-06-17 15:20:00,85.3,59.0,29.84,West,267,0.0,0.0,41,0.00,,---,0.00,VWS V14.00,2013-06-17 20:20:00,
2013-06-17 15:25:00,85.5,61.1,29.84,West,267,0.0,0.0,44,0.00,,---,0.00,VWS V14.00,2013-06-17 20:25:00,
2013-06-17 15:30:00,85.7,61.3,29.84,West,267,0.0,0.0,44,0.00,,---,0.00,VWS V14.00,2013-06-17 20:30:00,
2013-06-17 15:35:00,85.5,59.8,29.83,West,267,0.0,0.0,42,0.00,,---,0.00,VWS V14.00,2013-06-17 20:35:00,
2013-06-17 15:40:00,85.7,60.0,29.83,West,267,0.0,0.0,42,0.00,,---,0.00,VWS V14.00,2013-06-17 20:40:00,
2013-06-17 15:45:00,85.7,57.2,29.83,West,267,0.0,0.0,38,0.00,,---,0.00,VWS V14.00,2013-06-17 20:45:00,
2013-06-17 15:50:00,85.9,57.4,29.82,West,267,0.0,0.0,38,0.00,,---,0.00,VWS V14.00,2013-06-17 20:50:00,
2013-06-17 15:55:00,86.3,62.5,29.82,West,267,0.0,0.0,45,0.00,,---,0.00,VWS V14.00,2013-06-17 20:55:00,
2013-06-17 16:00:00,86.3,58.5,29.82,West,267,0.0,0.0,39,0.00,,---,0.00,VWS V14.00,2013-06-17 21:00:00,
2013-06-17 16:05:00,86.3,59.8,29.82,West,267,0.0,0.0,41,0.00,,---,0.00,VWS V14.00,2013-06-17 21:05:00,
2013-06-17 16:10:00,86.3,60.5,29.82,West,267,0.0,0.0,42,0.00,,---,0.00,VWS V14.00,2013-06-17 21:10:00,
2013-06-17 16:16:00,86.3,57.0,29.82,West,267,0.0,0.0,37,0.00,,---,0.00,VWS V14.00,2013-06-17 21:16:00,
2013-06-17 16:21:00,86.5,60.0,29.83,West,267,0.0,0.0,41,0.00,,---,0.00,VWS V14.00,2013-06-17 21:21:00,
2013-06-17 16:26:00,86.3,57.7,29.83,West,267,0.0,0.0,38,0.00,,---,0.00,VWS V14.00,2013-06-17 21:26:00,
2013-06-17 16:31:00,86.1,57.5,29.83,West,267,0.0,0.0,38,0.00,,---,0.00,VWS V14.00,2013-06-17 21:31:00,
2013-06-17 16:36:00,85.7,54.9,29.83,West,267,0.0,0.0,35,0.00,,---,0.00,VWS V14.00,2013-06-17 21:36:00,
2013-06-17 16:41:00,85.3,54.6,29.83,West,267,2.0,2.0,35,0.00,,---,0.00,VWS V14.00,2013-06-17 21:41:00,
2013-06-17 16:46:00,84.9,50.9,29.83,West,267,0.0,2.0,31,0.00,,---,0.00,VWS V14.00,2013-06-17 21:46:00,
2013-06-17 16:51:00,85.1,54.4,29.84,West,267,2.0,2.0,35,0.00,,---,0.00,VWS V14.00,2013-06-17 21:51:00,
2013-06-17 16:56:00,85.1,53.6,29.84,West,267,0.0,0.0,34,0.00,,---,0.00,VWS V14.00,2013-06-17 21:56:00,
2013-06-17 17:02:00,84.9,51.8,29.84,West,267,0.0,0.0,32,0.00,,---,0.00,VWS V14.00,2013-06-17 22:02:00,
2013-06-17 17:07:00,84.9,55.8,29.84,West,267,1.0,2.0,37,0.00,,---,0.00,VWS V14.00,2013-06-17 22:07:00,
2013-06-17 17:12:00,84.5,56.8,29.84,West,267,0.0,3.0,39,0.00,,---,0.00,VWS V14.00,2013-06-17 22:12:00,
2013-06-17 17:17:00,84.1,58.5,29.84,West,267,4.0,4.0,42,0.00,,---,0.00,VWS V14.00,2013-06-17 22:17:00,
2013-06-17 17:22:00,83.8,57.6,29.84,West,267,0.0,5.0,41,0.00,,---,0.00,VWS V14.00,2013-06-17 22:22:00,
2013-06-17 17:27:00,83.4,55.9,29.84,West,267,0.0,3.0,39,0.00,,---,0.00,VWS V14.00,2013-06-17 22:27:00,
2013-06-17 17:32:00,83.2,57.1,29.84,West,267,5.0,5.0,41,0.00,,---,0.00,VWS V14.00,2013-06-17 22:32:00,
2013-06-17 17:38:00,83.2,59.0,29.84,West,267,4.0,5.0,44,0.00,,---,0.00,VWS V14.00,2013-06-17 22:38:00,
2013-06-17 17:43:00,82.8,61.1,29.84,West,267,0.0,1.0,48,0.00,,---,0.00,VWS V14.00,2013-06-17 22:43:00,
2013-06-17 17:48:00,82.4,61.3,29.84,West,267,0.0,1.0,49,0.00,,---,0.00,VWS V14.00,2013-06-17 22:48:00,
2013-06-17 17:53:00,82.0,61.5,29.84,West,267,0.0,1.0,50,0.00,,---,0.00,VWS V14.00,2013-06-17 22:53:00,
2013-06-17 17:58:00,81.6,62.3,29.84,West,267,1.0,1.0,52,0.00,,---,0.00,VWS V14.00,2013-06-17 22:58:00,
2013-06-17 18:03:00,81.2,61.9,29.84,West,267,0.0,1.0,52,0.00,,---,0.00,VWS V14.00,2013-06-17 23:03:00,
2013-06-17 18:08:00,81.1,62.4,29.83,West,267,0.0,0.0,53,0.00,,---,0.00,VWS V14.00,2013-06-17 23:08:00,
2013-06-17 18:13:00,80.7,61.5,29.83,West,267,0.0,2.0,52,0.00,,---,0.00,VWS V14.00,2013-06-17 23:13:00,
2013-06-17 18:18:00,80.5,61.8,29.83,West,267,0.0,0.0,53,0.00,,---,0.00,VWS V14.00,2013-06-17 23:18:00,
2013-06-17 18:24:00,80.3,61.1,29.83,West,267,1.0,3.0,52,0.00,,---,0.00,VWS V14.00,2013-06-17 23:24:00,
2013-06-17 18:29:00,80.1,60.9,29.83,West,267,2.0,3.0,52,0.00,,---,0.00,VWS V14.00,2013-06-17 23:29:00,
2013-06-17 18:34:00,79.9,60.2,29.83,West,267,0.0,3.0,51,0.00,,---,0.00,VWS V14.00,2013-06-17 23:34:00,
2013-06-17 18:39:00,79.9,61.3,29.83,West,267,1.0,2.0,53,0.00,,---,0.00,VWS V14.00,2013-06-17 23:39:00,
2013-06-17 18:44:00,79.6,61.0,29.83,West,267,0.0,2.0,53,0.00,,---,0.00,VWS V14.00,2013-06-17 23:44:00,
2013-06-17 18:49:00,79.4,60.8,29.84,West,267,1.0,2.0,53,0.00,,---,0.00,VWS V14.00,2013-06-17 23:49:00,
2013-06-17 18:54:00,79.2,60.6,29.84,West,267,0.0,2.0,53,0.00,,---,0.00,VWS V14.00,2013-06-17 23:54:00,
2013-06-17 18:59:00,79.2,61.1,29.84,West,267,2.0,2.0,54,0.00,,---,0.00,VWS V14.00,2013-06-17 23:59:00,
2013-06-17 19:04:00,79.0,60.4,29.84,West,267,0.0,2.0,53,0.00,,---,0.00,VWS V14.00,2013-06-18 00:04:00,
2013-06-17 19:09:00,79.0,60.4,29.84,West,267,1.0,1.0,53,0.00,,---,0.00,VWS V14.00,2013-06-18 00:09:00,
2013-06-17 19:15:00,78.8,60.2,29.84,West,267,0.0,1.0,53,0.00,,---,0.00,VWS V14.00,2013-06-18 00:15:00,
2013-06-17 19:20:00,78.6,60.6,29.84,West,267,0.0,1.0,54,0.00,,---,0.00,VWS V14.00,2013-06-18 00:20:00,
2013-06-17 19:25:00,78.5,60.5,29.84,West,267,0.0,0.0,54,0.00,,---,0.00,VWS V14.00,2013-06-18 00:25:00,
2013-06-17 19:30:00,78.3,60.8,29.84,West,267,0.0,0.0,55,0.00,,---,0.00,VWS V14.00,2013-06-18 00:30:00,
2013-06-17 19:35:00,78.1,60.6,29.84,West,267,0.0,1.0,55,0.00,,---,0.00,VWS V14.00,2013-06-18 00:35:00,
2013-06-17 19:40:00,77.9,60.5,29.84,West,267,0.0,1.0,55,0.00,,---,0.00,VWS V14.00,2013-06-18 00:40:00,
2013-06-17 19:45:00,77.7,60.8,29.84,West,267,0.0,0.0,56,0.00,,---,0.00,VWS V14.00,2013-06-18 00:45:00,
2013-06-17 19:50:00,77.6,60.7,29.83,West,267,0.0,0.0,56,0.00,,---,0.00,VWS V14.00,2013-06-18 00:50:00,
2013-06-17 19:55:00,77.4,60.5,29.83,West,267,1.0,1.0,56,0.00,,---,0.00,VWS V14.00,2013-06-18 00:55:00,
2013-06-17 20:00:00,77.4,60.5,29.83,West,267,0.0,0.0,56,0.00,,---,0.00,VWS V14.00,2013-06-18 01:00:00,
2013-06-17 20:05:00,77.2,60.3,29.83,West,267,0.0,0.0,56,0.00,,---,0.00,VWS V14.00,2013-06-18 01:05:00,
2013-06-17 20:10:00,77.2,60.3,29.83,West,267,0.0,0.0,56,0.00,,---,0.00,VWS V14.00,2013-06-18 01:10:00,
2013-06-17 20:15:00,77.0,60.6,29.83,West,267,0.0,0.0,57,0.00,,---,0.00,VWS V14.00,2013-06-18 01:15:00,
2013-06-17 20:20:00,76.7,60.8,29.83,West,267,0.0,0.0,58,0.00,,---,0.00,VWS V14.00,2013-06-18 01:20:00,
2013-06-17 20:25:00,76.5,61.1,29.83,West,267,0.0,0.0,59,0.00,,---,0.00,VWS V14.00,2013-06-18 01:25:00,
2013-06-17 20:31:00,76.3,60.9,29.83,West,267,0.0,0.0,59,0.00,,---,0.00,VWS V14.00,2013-06-18 01:31:00,
2013-06-17 20:36:00,76.3,61.4,29.83,West,267,0.0,0.0,60,0.00,,---,0.00,VWS V14.00,2013-06-18 01:36:00,
2013-06-17 20:41:00,76.1,60.8,29.83,West,267,0.0,0.0,59,0.00,,---,0.00,VWS V14.00,2013-06-18 01:41:00,
2013-06-17 20:46:00,76.1,60.3,29.83,West,267,1.0,1.0,58,0.00,,---,0.00,VWS V14.00,2013-06-18 01:46:00,
2013-06-17 20:51:00,76.0,60.2,29.84,West,267,0.0,0.0,58,0.00,,---,0.00,VWS V14.00,2013-06-18 01:51:00,
2013-06-17 20:56:00,76.0,60.2,29.84,West,267,0.0,0.0,58,0.00,,---,0.00,VWS V14.00,2013-06-18 01:56:00,
2013-06-17 21:01:00,75.8,60.0,29.84,West,267,0.0,0.0,58,0.00,,---,0.00,VWS V14.00,2013-06-18 02:01:00,
2013-06-17 21:06:00,75.8,60.5,29.83,West,267,0.0,0.0,59,0.00,,---,0.00,VWS V14.00,2013-06-18 02:06:00,
2013-06-17 21:11:00,75.6,60.8,29.83,West,267,0.0,0.0,60,0.00,,---,0.00,VWS V14.00,2013-06-18 02:11:00,
2013-06-17 21:17:00,75.4,60.1,29.83,West,267,0.0,0.0,59,0.00,,---,0.00,VWS V14.00,2013-06-18 02:17:00,
2013-06-17 21:22:00,75.3,60.0,29.83,West,267,0.0,0.0,59,0.00,,---,0.00,VWS V14.00,2013-06-18 02:22:00,
2013-06-17 21:27:00,75.3,60.0,29.83,West,267,0.0,0.0,59,0.00,,---,0.00,VWS V14.00,2013-06-18 02:27:00,
2013-06-17 21:32:00,75.4,59.1,29.83,West,267,0.0,0.0,57,0.00,,---,0.00,VWS V14.00,2013-06-18 02:32:00,
2013-06-17 21:37:00,75.4,58.6,29.83,West,267,0.0,0.0,56,0.00,,---,0.00,VWS V14.00,2013-06-18 02:37:00,
2013-06-17 21:42:00,75.1,63.4,29.83,West,267,2.0,2.0,67,0.00,,---,0.00,VWS V14.00,2013-06-18 02:42:00,
2013-06-17 21:47:00,73.9,63.5,29.83,West,267,0.0,0.0,70,0.00,,---,0.00,VWS V14.00,2013-06-18 02:47:00,
2013-06-17 21:52:00,73.3,63.3,29.83,West,267,0.0,0.0,71,0.00,,---,0.00,VWS V14.00,2013-06-18 02:52:00,
2013-06-17 21:58:00,72.8,63.7,29.83,West,267,0.0,0.0,73,0.00,,---,0.00,VWS V14.00,2013-06-18 02:58:00,
2013-06-17 22:03:00,72.5,64.1,29.83,West,267,0.0,0.0,75,0.00,,---,0.00,VWS V14.00,2013-06-18 03:03:00,
2013-06-17 22:08:00,72.0,63.7,29.83,West,267,0.0,0.0,75,0.00,,---,0.00,VWS V14.00,2013-06-18 03:08:00,
2013-06-17 22:13:00,71.8,63.1,29.83,West,267,0.0,0.0,74,0.00,,---,0.00,VWS V14.00,2013-06-18 03:13:00,
2013-06-17 22:19:00,71.6,63.3,29.83,West,267,0.0,1.0,75,0.00,,---,0.00,VWS V14.00,2013-06-18 03:19:00,
2013-06-17 22:24:00,71.5,64.3,29.84,West,265,3.0,6.0,78,0.00,,---,0.00,VWS V14.00,2013-06-18 03:24:00,
2013-06-17 22:29:00,71.6,64.8,29.84,SSW,207,9.0,12.0,79,0.00,,---,0.00,VWS V14.00,2013-06-18 03:29:00,
2013-06-17 22:34:00,71.5,65.4,29.84,SSW,202,6.0,9.0,81,0.00,,---,0.00,VWS V14.00,2013-06-18 03:34:00,
2013-06-17 22:39:00,70.9,65.5,29.84,SSW,202,7.0,10.0,83,0.00,,---,0.00,VWS V14.00,2013-06-18 03:39:00,
2013-06-17 22:44:00,70.4,65.3,29.84,SSW,203,4.0,9.0,84,0.00,,---,0.00,VWS V14.00,2013-06-18 03:44:00,
2013-06-17 22:49:00,69.9,65.2,29.84,SSW,206,5.0,9.0,85,0.00,,---,0.00,VWS V14.00,2013-06-18 03:49:00,
2013-06-17 22:54:00,69.6,65.2,29.84,SW,214,8.0,11.0,86,0.00,,---,0.00,VWS V14.00,2013-06-18 03:54:00,
2013-06-17 23:00:00,69.4,65.4,29.84,SW,217,4.0,7.0,87,0.00,,---,0.00,VWS V14.00,2013-06-18 04:00:00,
2013-06-17 23:01:00,69.3,65.3,29.84,SW,217,7.0,11.0,87,0.00,,---,0.00,VWS V14.00,2013-06-18 04:01:00,
2013-06-17 23:02:00,69.3,65.3,29.84,SW,221,10.0,10.0,87,0.00,,---,0.00,VWS V14.00,2013-06-18 04:02:00,
2013-06-17 23:07:00,69.1,65.4,29.84,SW,229,7.0,8.0,88,0.00,,---,0.00,VWS V14.00,2013-06-18 04:07:00,
2013-06-17 23:12:00,68.9,65.2,29.84,SW,232,5.0,7.0,88,0.00,,---,0.00,VWS V14.00,2013-06-18 04:12:00,
2013-06-17 23:17:00,68.9,65.2,29.84,SW,232,4.0,5.0,88,0.00,,---,0.00,VWS V14.00,2013-06-18 04:17:00,
2013-06-17 23:22:00,68.8,65.1,29.84,SW,232,5.0,6.0,88,0.00,,---,0.00,VWS V14.00,2013-06-18 04:22:00,
2013-06-17 23:27:00,68.8,65.1,29.84,SW,232,6.0,6.0,88,0.00,,---,0.00,VWS V14.00,2013-06-18 04:27:00,
2013-06-17 23:32:00,68.6,64.9,29.84,SW,233,7.0,7.0,88,0.00,,---,0.00,VWS V14.00,2013-06-18 04:32:00,
2013-06-17 23:37:00,68.6,64.6,29.84,SW,234,7.0,7.0,87,0.00,,---,0.00,VWS V14.00,2013-06-18 04:37:00,
2013-06-17 23:42:00,68.6,64.6,29.84,SW,234,6.0,7.0,87,0.00,,---,0.00,VWS V14.00,2013-06-18 04:42:00,
2013-06-17 23:47:00,68.4,64.4,29.84,SW,234,6.0,7.0,87,0.00,,---,0.00,VWS V14.00,2013-06-18 04:47:00,
2013-06-17 23:53:00,68.3,64.6,29.84,SW,234,5.0,7.0,88,0.00,,---,0.00,VWS V14.00,2013-06-18 04:53:00,
2013-06-17 23:58:00,68.1,64.4,29.84,SW,234,5.0,6.0,88,0.00,,---,0.00,VWS V14.00,2013-06-18 04:58:00,